Latest Coastal Weather Observations for Barrow Island

IDW60701

Issued at 4:45 am WST Wednesday 26 November 2014 (issued every 10 minutes, with the page automatically refreshed every 10 minutes)

About coastal observations | Map of coastal stations | Coastal observations for WA | Marine services | Other Formats
Station Details ID: 005094 Name: BARROW ISLAND AIRPORT Lat: -20.88 Lon: 115.41 Height: 6.4 m
Data from the previous 72 hours. | See also: Recent months at Barrow Island
Date/Time
WST
Temp

°C
Wind Pressure Rain
since 9am
mm
Weather Cloud Vis
km
Sea
Height
m
Swell
Dir
 
Speed
knots
Gust
knots
hPa Trend Height
m
Period
s
Dir
26/04:30am 24.4 S 13 15 1009.3 - 0.0 - - - - - - -
26/04:00am 24.4 SSW 13 16 1008.7 - 0.0 - - - - - - -
26/03:30am 24.1 SSW 14 16 1008.2 - 0.0 - - - - - - -
26/03:00am 24.2 SW 14 16 1008.3 - 0.0 - - - - - - -
26/02:30am 24.2 SW 12 15 1008.2 - 0.0 - - - - - - -
26/02:00am 24.1 WSW 13 16 1008.1 - 0.0 - - - - - - -
26/01:30am 24.0 WSW 16 18 1008.1 - 0.0 - - - - - - -
26/01:00am 23.9 W 15 19 1008.2 - 0.0 - - - - - - -
26/12:30am 23.9 W 15 18 1008.4 - 0.0 - - - - - - -
26/12:00am 24.0 W 15 19 1008.8 - 0.0 - - - - - - -
 
Date/Time
WST
Temp

°C
Wind Pressure Rain
since 9am
mm
Weather Cloud Vis
km
Sea
Height
m
Swell
Dir
 
Speed
knots
Gust
knots
hPa Trend Height
m
Period
s
Dir
25/11:30pm 24.1 W 14 17 1008.9 - 0.0 - - - - - - -
25/11:00pm 24.2 WSW 13 17 1009.1 - 0.0 - - - - - - -
25/10:30pm 24.3 W 15 20 1009.2 - 0.0 - - - - - - -
25/10:00pm 24.4 W 17 20 1008.9 - 0.0 - - - - - - -
25/09:30pm 24.3 W 12 16 1008.8 - 0.0 - - - - - - -
25/09:00pm 24.3 W 14 17 1008.5 - 0.0 - - - - - - -
25/08:30pm 24.7 W 16 19 1008.5 - 0.0 - - - - - - -
25/08:00pm 24.7 W 15 19 1008.2 - 0.0 - - - - - - -
25/07:30pm 24.9 W 15 18 1008.0 - 0.0 - - - - - - -
25/07:00pm 25.2 W 14 18 1007.8 - 0.0 - - - - - - -
25/06:30pm 25.8 W 18 23 1007.4 - 0.0 - - - - - - -
25/06:00pm 26.4 W 18 22 1007.2 - 0.0 - - - - - - -
25/05:30pm 27.4 W 15 19 1007.0 - 0.0 - - - - - - -
25/05:00pm 27.9 W 16 20 1007.1 - 0.0 - - - - - - -
25/04:30pm 28.6 W 18 23 1007.0 - 0.0 - - - - - - -
25/04:00pm 29.3 WSW 15 18 1006.9 - 0.0 - - - - - - -
25/03:30pm 29.1 WSW 18 21 1007.0 - 0.0 - - - - - - -
25/03:00pm 29.9 WSW 15 17 1007.3 - 0.0 - - - - - - -
25/02:30pm 30.5 WSW 13 16 1007.8 - 0.0 - - - - - - -
25/02:00pm 30.9 WSW 13 17 1007.9 - 0.0 - - - - - - -
25/01:30pm 30.8 WSW 11 14 1008.0 - 0.0 - - - - - - -
25/01:00pm 29.6 SSW 12 13 1008.3 - 0.0 - - - - - - -
25/12:30pm 29.0 SSW 11 13 1008.7 - 0.0 - - - - - - -
25/12:00pm 28.6 SSW 11 13 1009.1 - 0.0 - - - - - - -
25/11:30am 28.7 SSW 12 13 1009.6 - 0.0 - - - - - - -
25/11:00am 28.7 SW 11 14 1010.2 - 0.0 - - - - - - -
25/10:30am 28.4 SW 11 14 1010.2 - 0.0 - - - - - - -
25/10:00am 28.1 SSW 11 13 1010.3 - 0.0 - - - - - - -
25/09:30am 28.2 SW 10 12 1010.3 - 0.0 - - - - - - -
25/09:00am 27.6 SW 9 12 1010.2 - 0.0 - - - - - - -
25/08:30am 27.3 SW 11 13 1010.1 - 0.0 - - - - - - -
25/08:00am 26.6 SW 11 13 1010.1 - 0.0 - - - - - - -
25/07:30am 26.2 SW 10 12 1010.0 - 0.0 - - - - - - -
25/07:00am 25.2 SW 8 10 1010.0 - 0.0 - - - - - - -
25/06:30am 24.3 SW 8 10 1010.1 - 0.0 - - - - - - -
25/06:00am 24.2 SSW 10 11 1009.9 - 0.0 - - - - - - -
25/05:30am 24.1 SSW 11 13 1009.8 - 0.0 - - - - - - -
25/05:00am 24.1 SSW 13 15 1009.6 - 0.0 - - - - - - -
25/04:30am 23.9 S 16 18 1009.5 - 0.0 - - - - - - -
25/04:00am 23.8 S 15 17 1009.4 - 0.0 - - - - - - -
25/03:30am 24.1 SSW 15 18 1009.5 - 0.0 - - - - - - -
25/03:00am 24.1 SW 15 18 1009.5 - 0.0 - - - - - - -
25/02:30am 23.6 SW 13 17 1009.5 - 0.0 - - - - - - -
25/02:00am 24.1 SW 15 18 1009.5 - 0.0 - - - - - - -
25/01:30am 24.0 SW 15 19 1009.5 - 0.0 - - - - - - -
25/01:00am 23.9 SW 13 16 1009.9 - 0.0 - - - - - - -
25/12:30am 24.1 SW 14 19 1010.2 - 0.0 - - - - - - -
25/12:00am 24.1 SW 15 18 1010.2 - 0.0 - - - - - - -
 
Date/Time
WST
Temp

°C
Wind Pressure Rain
since 9am
mm
Weather Cloud Vis
km
Sea
Height
m
Swell
Dir
 
Speed
knots
Gust
knots
hPa Trend Height
m
Period
s
Dir
24/11:30pm 24.1 WSW 15 17 1010.3 - 0.0 - - - - - - -
24/11:00pm 24.2 WSW 14 17 1010.4 - 0.0 - - - - - - -
24/10:30pm 24.1 WSW 14 18 1010.5 - 0.0 - - - - - - -
24/10:00pm 24.3 WSW 16 20 1010.6 - 0.0 - - - - - - -
24/09:30pm 24.2 WSW 16 19 1010.4 - 0.0 - - - - - - -
24/09:00pm 24.2 WSW 15 18 1010.3 - 0.0 - - - - - - -
24/08:30pm 24.6 WSW 16 20 1010.0 - 0.0 - - - - - - -
24/08:00pm 24.7 W 15 19 1009.6 - 0.0 - - - - - - -
24/07:30pm 24.8 WSW 15 18 1009.3 - 0.0 - - - - - - -
24/07:00pm 25.0 W 16 21 1009.0 - 0.0 - - - - - - -
24/06:30pm 25.3 W 17 20 1008.7 - 0.0 - - - - - - -
24/06:00pm 26.1 W 18 22 1008.6 - 0.0 - - - - - - -
24/05:30pm 26.9 W 18 21 1008.7 - 0.0 - - - - - - -
24/05:00pm 27.5 W 17 21 1008.6 - 0.0 - - - - - - -
24/04:30pm 27.9 WSW 16 20 1008.7 - 0.0 - - - - - - -
24/04:00pm 27.7 WSW 16 19 1008.7 - 0.0 - - - - - - -
24/03:30pm 28.0 WSW 16 19 1008.9 - 0.0 - - - - - - -
24/03:00pm 28.4 WSW 16 19 1009.1 - 0.0 - - - - - - -
24/02:30pm 28.4 WSW 15 18 1009.4 - 0.0 - - - - - - -
24/02:00pm 28.6 WSW 15 18 1009.7 - 0.0 - - - - - - -
24/01:30pm 28.8 WSW 14 17 1010.0 - 0.0 - - - - - - -
24/01:00pm 29.1 WSW 13 16 1010.2 - 0.0 - - - - - - -
24/12:30pm 28.2 SW 12 14 1010.5 - 0.0 - - - - - - -
24/12:00pm 27.1 SSW 14 17 1010.8 - 0.0 - - - - - - -
24/11:30am 26.7 SW 14 17 1011.1 - 0.0 - - - - - - -
24/11:00am 26.7 SW 14 17 1011.5 - 0.0 - - - - - - -
24/10:30am 26.4 SW 14 17 1011.4 - 0.0 - - - - - - -
24/10:00am 26.1 SW 14 17 1011.6 - 0.0 - - - - - - -
24/09:30am 26.4 SW 15 17 1011.8 - 0.0 - - - - - - -
24/09:00am 25.5 SW 15 18 1011.9 - 0.0 - - - - - - -
24/08:30am 25.4 SW 14 16 1011.9 - 0.0 - - - - - - -
24/08:00am 25.2 SW 14 16 1011.7 - 0.0 - - - - - - -
24/07:30am 24.6 SSW 15 17 1011.4 - 0.0 - - - - - - -
24/07:00am 24.2 SW 13 15 1011.3 - 0.0 - - - - - - -
24/06:30am 23.8 SW 13 15 1011.2 - 0.0 - - - - - - -
24/06:00am 23.6 SW 13 15 1010.9 - 0.0 - - - - - - -
24/05:30am 23.3 SW 14 16 1010.7 - 0.0 - - - - - - -
24/05:00am 23.4 SSW 13 15 1010.6 - 0.0 - - - - - - -
24/04:30am 23.7 SSW 15 17 1010.3 - 0.0 - - - - - - -
24/04:00am 23.9 SSW 15 19 1010.3 - 0.0 - - - - - - -
24/03:30am 24.1 SSW 17 20 1010.2 - 0.0 - - - - - - -
24/03:00am 24.1 SSW 17 20 1010.0 - 0.0 - - - - - - -
24/02:30am 24.1 SSW 17 21 1010.1 - 0.0 - - - - - - -
24/02:00am 24.2 SSW 19 21 1010.2 - 0.0 - - - - - - -
24/01:30am 24.3 SW 17 21 1010.2 - 0.0 - - - - - - -
24/01:00am 24.2 SW 17 21 1010.5 - 0.0 - - - - - - -
24/12:30am 24.3 SW 17 21 1010.8 - 0.0 - - - - - - -
24/12:00am 24.4 SW 18 22 1010.9 - 0.0 - - - - - - -
 
Date/Time
WST
Temp

°C
Wind Pressure Rain
since 9am
mm
Weather Cloud Vis
km
Sea
Height
m
Swell
Dir
 
Speed
knots
Gust
knots
hPa Trend Height
m
Period
s
Dir
23/11:30pm 24.7 SW 17 21 1011.2 - 0.0 - - - - - - -
23/11:00pm 24.6 SW 16 20 1011.3 - 0.0 - - - - - - -
23/10:30pm 24.6 SW 15 17 1011.5 - 0.0 - - - - - - -
23/10:00pm 24.7 WSW 14 17 1011.4 - 0.0 - - - - - - -
23/09:30pm 24.5 WSW 14 17 1011.3 - 0.0 - - - - - - -
23/09:00pm 24.4 WSW 13 17 1011.2 - 0.0 - - - - - - -
23/08:30pm 24.4 WSW 13 16 1011.2 - 0.0 - - - - - - -
23/08:00pm 24.4 WSW 14 17 1011.0 - 0.0 - - - - - - -
23/07:30pm 24.6 WSW 14 19 1010.6 - 0.0 - - - - - - -
23/07:00pm 24.9 WSW 16 21 1010.1 - 0.0 - - - - - - -
23/06:30pm 25.2 W 15 18 1009.9 - 0.0 - - - - - - -
23/06:00pm 26.3 WSW 16 20 1009.8 - 0.0 - - - - - - -
23/05:30pm 26.3 WSW 19 23 1009.7 - 0.0 - - - - - - -
23/05:00pm 26.5 WSW 20 23 1009.5 - 0.0 - - - - - - -
23/04:30pm 27.3 WSW 19 23 1009.4 - 0.0 - - - - - - -
23/04:00pm 27.3 WSW 19 23 1009.3 - 0.0 - - - - - - -
23/03:30pm 28.1 WSW 19 22 1009.4 - 0.0 - - - - - - -
23/03:00pm 27.8 WSW 18 22 1009.7 - 0.0 - - - - - - -
23/02:30pm 27.7 WSW 19 22 1009.9 - 0.0 - - - - - - -
23/02:00pm 27.9 WSW 17 21 1010.1 - 0.0 - - - - - - -
23/01:30pm 28.1 SW 17 19 1010.2 - 0.0 - - - - - - -
23/01:00pm 27.3 SW 17 19 1010.4 - 0.0 - - - - - - -
23/12:30pm 27.4 SW 17 19 1010.7 - 0.0 - - - - - - -
23/12:00pm 27.1 SW 16 18 1011.1 - 0.0 - - - - - - -
23/11:30am 26.8 SSW 16 19 1011.4 - 0.0 - - - - - - -
23/11:00am 26.4 SSW 16 18 1011.7 - 0.0 - - - - - - -
23/10:30am 26.4 SSW 15 17 1011.9 - 0.0 - - - - - - -
23/10:00am 25.8 SSW 15 17 1012.0 - 0.0 - - - - - - -
23/09:30am 25.2 SSW 16 19 1011.9 - 0.0 - - - - - - -
23/09:00am 24.9 SSW 16 18 1012.0 - 0.0 - - - - - - -
23/08:30am 24.7 SSW 15 18 1011.9 - 0.0 - - - - - - -
23/08:00am 24.2 SSW 16 19 1011.8 - 0.0 - - - - - - -
23/07:30am 23.8 SSW 16 20 1011.5 - 0.0 - - - - - - -
23/07:00am 23.5 SSW 19 23 1011.2 - 0.0 - - - - - - -
23/06:30am 23.3 SSW 18 21 1010.9 - 0.0 - - - - - - -
23/06:00am 23.2 SSW 18 21 1010.7 - 0.0 - - - - - - -
23/05:30am 23.1 SSW 18 21 1010.3 - 0.0 - - - - - - -
23/05:00am 23.3 SSW 19 23 1010.0 - 0.0 - - - - - - -

Other Formats:

Comma delimited format used in spreadsheet applications
http://www.bom.gov.au/fwo/IDW60701/IDW60701.95304.axf

JavaScript Object Notation format (JSON) in row-major order
http://www.bom.gov.au/fwo/IDW60701/IDW60701.95304.json